PWSweather.com
Personal Weather Stations
Station Observations
CARNOUSTIE
Pambride, CarnoustieGB DD7 6DY

PambrideCarnoustieGB DD7 6DY

Lat: 56.50889, Lon: -2.7051

Elevation: 105

Station Type: Oregon Scientific WMR200

www.carnoustieweather.co.uk

High Low Average
Temperature 70.1°F21.2°C 41.2°F5.1°C 55.0°F12.8°C
Dew Point 48.2°F9.0°C 34.2°F1.2°C 40.9°F4.9°C
Winds 8.1 mph 13.0 kmh Calm Calm 3.0 mph SSW4.8 kmh SSW
Wind Gusts 10.4 mph16.7 kmh -- 5.0 mph8.0 kmh
Humidity 78% 44% 61%
Pressure 30.42 in1030.1 mb 30.24 in1024.0 mb -
Precipitation 0.00 in0.0 mm - -
Hour Temp Dew Point Humidity Winds Wind Gusts Pressure Precip Precip Rate Daily Precip Total
12:00 AM 49.6°F9.8°C 40.6°F4.8°C 71% 3.5 mph NW5.6 kmh NW 4.6 mph7.4 kmh 30.24 in1024.0 mb - 0.00 in0.0 mm 0.00 in0.0 mm
12:10 AM 49.5°F9.7°C 40.4°F4.7°C 71% 3.5 mph NW5.6 kmh NW 4.6 mph7.4 kmh 30.27 in1025.1 mb - 0.00 in0.0 mm 0.00 in0.0 mm
12:20 AM 49.5°F9.7°C 40.1°F4.5°C 70% 3.5 mph W5.6 kmh W 3.5 mph5.6 kmh 30.27 in1025.1 mb - 0.00 in0.0 mm 0.00 in0.0 mm
12:30 AM 49.3°F9.6°C 39.5°F4.2°C 69% 4.6 mph W7.4 kmh W 5.8 mph9.3 kmh 30.27 in1025.1 mb - 0.00 in0.0 mm 0.00 in0.0 mm
12:40 AM 48.9°F9.4°C 38.8°F3.8°C 68% 3.5 mph WNW5.6 kmh WNW 4.6 mph7.4 kmh 30.27 in1025.1 mb - 0.00 in0.0 mm 0.00 in0.0 mm
12:50 AM 48.7°F9.3°C 38.6°F3.7°C 68% 2.3 mph WSW3.7 kmh WSW 3.5 mph5.6 kmh 30.27 in1025.1 mb - 0.00 in0.0 mm 0.00 in0.0 mm
01:00 AM 48.3°F9.1°C 38.2°F3.4°C 68% 2.3 mph WNW3.7 kmh WNW 3.5 mph5.6 kmh 30.27 in1025.1 mb - 0.00 in0.0 mm 0.00 in0.0 mm
01:10 AM 47.8°F8.8°C 38.2°F3.4°C 69% Calm Calm -- 30.27 in1025.1 mb - 0.00 in0.0 mm 0.00 in0.0 mm
01:20 AM 47.1°F8.4°C 37.8°F3.2°C 70% 2.3 mph W3.7 kmh W 2.3 mph3.7 kmh 30.27 in1025.1 mb - 0.00 in0.0 mm 0.00 in0.0 mm
01:30 AM 46.6°F8.1°C 37.7°F3.2°C 71% 2.3 mph NW3.7 kmh NW 2.3 mph3.7 kmh 30.27 in1025.1 mb - 0.00 in0.0 mm 0.00 in0.0 mm
01:40 AM 46.4°F8.0°C 37.5°F3.1°C 71% 2.3 mph W3.7 kmh W 2.3 mph3.7 kmh 30.27 in1025.1 mb - 0.00 in0.0 mm 0.00 in0.0 mm
01:50 AM 46.4°F8.0°C 37.5°F3.1°C 71% 1.2 mph W1.9 kmh W 2.3 mph3.7 kmh 30.27 in1025.1 mb - 0.00 in0.0 mm 0.00 in0.0 mm
02:00 AM 46.0°F7.8°C 37.4°F3.0°C 72% Calm Calm -- 30.27 in1025.1 mb - 0.00 in0.0 mm 0.00 in0.0 mm
02:10 AM 45.3°F7.4°C 37.2°F2.9°C 73% Calm Calm -- 30.27 in1025.1 mb - 0.00 in0.0 mm 0.00 in0.0 mm
02:20 AM 44.8°F7.1°C 36.6°F2.6°C 73% Calm Calm -- 30.27 in1025.1 mb - 0.00 in0.0 mm 0.00 in0.0 mm
02:30 AM 44.4°F6.9°C 36.6°F2.6°C 74% Calm Calm 1.2 mph1.9 kmh 30.30 in1026.1 mb - 0.00 in0.0 mm 0.00 in0.0 mm
02:40 AM 44.1°F6.7°C 36.4°F2.4°C 74% 1.2 mph N1.9 kmh N 2.3 mph3.7 kmh 30.27 in1025.1 mb - 0.00 in0.0 mm 0.00 in0.0 mm
02:50 AM 43.9°F6.6°C 36.5°F2.5°C 75% 1.2 mph NW1.9 kmh NW 2.3 mph3.7 kmh 30.27 in1025.1 mb - 0.00 in0.0 mm 0.00 in0.0 mm
03:00 AM 43.9°F6.6°C 36.5°F2.5°C 75% 3.5 mph W5.6 kmh W 3.5 mph5.6 kmh 30.30 in1026.1 mb - 0.00 in0.0 mm 0.00 in0.0 mm
03:10 AM 43.7°F6.5°C 36.3°F2.4°C 75% 3.5 mph W5.6 kmh W 3.5 mph5.6 kmh 30.30 in1026.1 mb - 0.00 in0.0 mm 0.00 in0.0 mm
03:20 AM 43.3°F6.3°C 35.9°F2.2°C 75% 2.3 mph WNW3.7 kmh WNW 3.5 mph5.6 kmh 30.30 in1026.1 mb - 0.00 in0.0 mm 0.00 in0.0 mm
03:30 AM 42.9°F6.1°C 35.5°F1.9°C 75% 2.3 mph WNW3.7 kmh WNW 4.6 mph7.4 kmh 30.30 in1026.1 mb - 0.00 in0.0 mm 0.00 in0.0 mm
03:40 AM 42.4°F5.8°C 35.4°F1.9°C 76% 3.5 mph W5.6 kmh W 3.5 mph5.6 kmh 30.30 in1026.1 mb - 0.00 in0.0 mm 0.00 in0.0 mm
03:50 AM 42.1°F5.6°C 35.0°F1.7°C 76% 3.5 mph WNW5.6 kmh WNW 4.6 mph7.4 kmh 30.30 in1026.1 mb - 0.00 in0.0 mm 0.00 in0.0 mm
04:00 AM 41.7°F5.4°C 34.7°F1.5°C 76% 2.3 mph W3.7 kmh W 3.5 mph5.6 kmh 30.30 in1026.1 mb - 0.00 in0.0 mm 0.00 in0.0 mm
04:10 AM 41.5°F5.3°C 34.5°F1.4°C 76% 2.3 mph WNW3.7 kmh WNW 2.3 mph3.7 kmh 30.30 in1026.1 mb - 0.00 in0.0 mm 0.00 in0.0 mm
04:20 AM 41.2°F5.1°C 34.2°F1.2°C 76% 3.5 mph NW5.6 kmh NW 4.6 mph7.4 kmh 30.30 in1026.1 mb - 0.00 in0.0 mm 0.00 in0.0 mm
04:30 AM 41.6°F5.3°C 34.9°F1.6°C 77% 4.6 mph NW7.4 kmh NW 4.6 mph7.4 kmh 30.33 in1027.1 mb - 0.00 in0.0 mm 0.00 in0.0 mm
04:40 AM 42.1°F5.6°C 35.4°F1.9°C 77% 4.6 mph NW7.4 kmh NW 5.8 mph9.3 kmh 30.33 in1027.1 mb - 0.00 in0.0 mm 0.00 in0.0 mm
04:50 AM 42.3°F5.7°C 35.6°F2.0°C 77% 3.5 mph NW5.6 kmh NW 4.6 mph7.4 kmh 30.33 in1027.1 mb - 0.00 in0.0 mm 0.00 in0.0 mm
05:00 AM 42.3°F5.7°C 35.6°F2.0°C 77% 3.5 mph N5.6 kmh N 4.6 mph7.4 kmh 30.33 in1027.1 mb - 0.00 in0.0 mm 0.00 in0.0 mm
05:10 AM 42.6°F5.9°C 35.9°F2.2°C 77% 3.5 mph N5.6 kmh N 3.5 mph5.6 kmh 30.33 in1027.1 mb - 0.00 in0.0 mm 0.00 in0.0 mm
05:20 AM 43.0°F6.1°C 35.9°F2.2°C 76% 1.2 mph WNW1.9 kmh WNW 2.3 mph3.7 kmh 30.33 in1027.1 mb - 0.00 in0.0 mm 0.00 in0.0 mm
05:30 AM 43.2°F6.2°C 36.1°F2.3°C 76% 1.2 mph W1.9 kmh W 1.2 mph1.9 kmh 30.33 in1027.1 mb - 0.00 in0.0 mm 0.00 in0.0 mm
05:40 AM 44.1°F6.7°C 37.3°F2.9°C 77% 1.2 mph WSW1.9 kmh WSW 1.2 mph1.9 kmh 30.33 in1027.1 mb - 0.00 in0.0 mm 0.00 in0.0 mm
05:50 AM 45.5°F7.5°C 38.7°F3.7°C 77% Calm Calm -- 30.33 in1027.1 mb - 0.00 in0.0 mm 0.00 in0.0 mm
06:00 AM 47.2°F8.4°C 40.0°F4.4°C 76% 1.2 mph NW1.9 kmh NW 1.2 mph1.9 kmh 30.33 in1027.1 mb - 0.00 in0.0 mm 0.00 in0.0 mm
06:10 AM 48.4°F9.1°C 40.9°F4.9°C 75% 2.3 mph NW3.7 kmh NW 3.5 mph5.6 kmh 30.33 in1027.1 mb - 0.00 in0.0 mm 0.00 in0.0 mm
06:20 AM 49.6°F9.8°C 41.3°F5.2°C 73% 3.5 mph NNE5.6 kmh NNE 4.6 mph7.4 kmh 30.33 in1027.1 mb - 0.00 in0.0 mm 0.00 in0.0 mm
06:30 AM 50.8°F10.4°C 41.3°F5.2°C 70% 2.3 mph NW3.7 kmh NW 3.5 mph5.6 kmh 30.36 in1028.1 mb - 0.00 in0.0 mm 0.00 in0.0 mm
06:40 AM 51.7°F10.9°C 41.5°F5.3°C 68% 2.3 mph WNW3.7 kmh WNW 3.5 mph5.6 kmh 30.36 in1028.1 mb - 0.00 in0.0 mm 0.00 in0.0 mm
06:50 AM 52.5°F11.4°C 41.0°F5.0°C 65% 3.5 mph N5.6 kmh N 3.5 mph5.6 kmh 30.36 in1028.1 mb - 0.00 in0.0 mm 0.00 in0.0 mm
07:00 AM 53.2°F11.8°C 41.4°F5.2°C 64% 3.5 mph NW5.6 kmh NW 3.5 mph5.6 kmh 30.36 in1028.1 mb - 0.00 in0.0 mm 0.00 in0.0 mm
07:10 AM 53.8°F12.1°C 40.7°F4.8°C 61% 3.5 mph N5.6 kmh N 4.6 mph7.4 kmh 30.36 in1028.1 mb - 0.00 in0.0 mm 0.00 in0.0 mm
07:20 AM 54.6°F12.6°C 41.4°F5.2°C 61% 3.5 mph N5.6 kmh N 3.5 mph5.6 kmh 30.36 in1028.1 mb - 0.00 in0.0 mm 0.00 in0.0 mm
07:30 AM 56.0°F13.3°C 41.8°F5.4°C 59% 3.5 mph ENE5.6 kmh ENE 4.6 mph7.4 kmh 30.36 in1028.1 mb - 0.00 in0.0 mm 0.00 in0.0 mm
07:40 AM 56.7°F13.7°C 41.2°F5.1°C 56% 3.5 mph ESE5.6 kmh ESE 3.5 mph5.6 kmh 30.36 in1028.1 mb - 0.00 in0.0 mm 0.00 in0.0 mm
07:50 AM 57.6°F14.2°C 41.5°F5.3°C 55% 3.5 mph NE5.6 kmh NE 5.8 mph9.3 kmh 30.36 in1028.1 mb - 0.00 in0.0 mm 0.00 in0.0 mm
08:00 AM 57.8°F14.3°C 40.3°F4.6°C 52% 2.3 mph NE3.7 kmh NE 3.5 mph5.6 kmh 30.36 in1028.1 mb - 0.00 in0.0 mm 0.00 in0.0 mm
08:10 AM 59.2°F15.1°C 41.6°F5.3°C 52% 3.5 mph NW5.6 kmh NW 5.8 mph9.3 kmh 30.36 in1028.1 mb - 0.00 in0.0 mm 0.00 in0.0 mm
08:20 AM 58.7°F14.8°C 40.6°F4.8°C 51% 3.5 mph NE5.6 kmh NE 4.6 mph7.4 kmh 30.36 in1028.1 mb - 0.00 in0.0 mm 0.00 in0.0 mm
08:30 AM 59.7°F15.4°C 41.6°F5.3°C 51% 2.3 mph W3.7 kmh W 2.3 mph3.7 kmh 30.36 in1028.1 mb - 0.00 in0.0 mm 0.00 in0.0 mm
08:40 AM 60.1°F15.6°C 41.9°F5.5°C 51% 4.6 mph WNW7.4 kmh WNW 4.6 mph7.4 kmh 30.36 in1028.1 mb - 0.00 in0.0 mm 0.00 in0.0 mm
08:50 AM 60.4°F15.8°C 42.2°F5.7°C 51% 3.5 mph SSE5.6 kmh SSE 3.5 mph5.6 kmh 30.36 in1028.1 mb - 0.00 in0.0 mm 0.00 in0.0 mm
09:00 AM 61.0°F16.1°C 41.1°F5.1°C 48% 3.5 mph S5.6 kmh S 3.5 mph5.6 kmh 30.36 in1028.1 mb - 0.00 in0.0 mm 0.00 in0.0 mm
09:10 AM 61.9°F16.6°C 42.0°F5.6°C 48% 4.6 mph SE7.4 kmh SE 6.9 mph11.1 kmh 30.36 in1028.1 mb - 0.00 in0.0 mm 0.00 in0.0 mm
09:20 AM 62.1°F16.7°C 42.1°F5.6°C 48% 4.6 mph SE7.4 kmh SE 5.8 mph9.3 kmh 30.36 in1028.1 mb - 0.00 in0.0 mm 0.00 in0.0 mm
09:30 AM 62.6°F17.0°C 43.2°F6.2°C 49% 4.6 mph S7.4 kmh S 6.9 mph11.1 kmh 30.39 in1029.1 mb - 0.00 in0.0 mm 0.00 in0.0 mm
09:40 AM 63.0°F17.2°C 43.0°F6.1°C 48% 2.3 mph SSE3.7 kmh SSE 4.6 mph7.4 kmh 30.39 in1029.1 mb - 0.00 in0.0 mm 0.00 in0.0 mm
09:50 AM 63.1°F17.3°C 43.1°F6.2°C 48% 4.6 mph SSE7.4 kmh SSE 5.8 mph9.3 kmh 30.39 in1029.1 mb - 0.00 in0.0 mm 0.00 in0.0 mm
10:00 AM 62.6°F17.0°C 42.6°F5.9°C 48% 3.5 mph S5.6 kmh S 4.6 mph7.4 kmh 30.39 in1029.1 mb - 0.00 in0.0 mm 0.00 in0.0 mm
10:10 AM 63.0°F17.2°C 42.4°F5.8°C 47% 3.5 mph SSE5.6 kmh SSE 4.6 mph7.4 kmh 30.39 in1029.1 mb - 0.00 in0.0 mm 0.00 in0.0 mm
10:20 AM 64.4°F18.0°C 44.3°F6.8°C 48% 3.5 mph S5.6 kmh S 5.8 mph9.3 kmh 30.39 in1029.1 mb - 0.00 in0.0 mm 0.00 in0.0 mm
10:30 AM 63.6°F17.6°C 43.6°F6.4°C 48% 3.5 mph SSE5.6 kmh SSE 4.6 mph7.4 kmh 30.39 in1029.1 mb - 0.00 in0.0 mm 0.00 in0.0 mm
10:40 AM 64.6°F18.1°C 43.9°F6.6°C 47% 3.5 mph SSE5.6 kmh SSE 6.9 mph11.1 kmh 30.39 in1029.1 mb - 0.00 in0.0 mm 0.00 in0.0 mm
10:50 AM 64.9°F18.3°C 44.2°F6.8°C 47% 4.6 mph SE7.4 kmh SE 4.6 mph7.4 kmh 30.39 in1029.1 mb - 0.00 in0.0 mm 0.00 in0.0 mm
11:00 AM 64.4°F18.0°C 43.7°F6.5°C 47% 4.6 mph S7.4 kmh S 6.9 mph11.1 kmh 30.39 in1029.1 mb - 0.00 in0.0 mm 0.00 in0.0 mm
11:10 AM 64.5°F18.1°C 43.8°F6.6°C 47% 5.8 mph SE9.3 kmh SE 6.9 mph11.1 kmh 30.39 in1029.1 mb - 0.00 in0.0 mm 0.00 in0.0 mm
11:20 AM 65.6°F18.7°C 45.9°F7.7°C 49% 3.5 mph SE5.6 kmh SE 5.8 mph9.3 kmh 30.39 in1029.1 mb - 0.00 in0.0 mm 0.00 in0.0 mm
11:30 AM 65.3°F18.5°C 45.7°F7.6°C 49% 4.6 mph SSE7.4 kmh SSE 4.6 mph7.4 kmh 30.39 in1029.1 mb - 0.00 in0.0 mm 0.00 in0.0 mm
11:40 AM 66.7°F19.3°C 47.0°F8.3°C 49% 3.5 mph SE5.6 kmh SE 9.2 mph14.8 kmh 30.39 in1029.1 mb - 0.00 in0.0 mm 0.00 in0.0 mm
11:50 AM 64.3°F17.9°C 44.2°F6.8°C 48% 4.6 mph SSE7.4 kmh SSE 5.8 mph9.3 kmh 30.39 in1029.1 mb - 0.00 in0.0 mm 0.00 in0.0 mm
12:00 PM 65.7°F18.7°C 46.0°F7.8°C 49% 5.8 mph SSE9.3 kmh SSE 8.1 mph13.0 kmh 30.39 in1029.1 mb - 0.00 in0.0 mm 0.00 in0.0 mm
12:10 PM 66.6°F19.2°C 46.3°F7.9°C 48% 5.8 mph SE9.3 kmh SE 6.9 mph11.1 kmh 30.39 in1029.1 mb - 0.00 in0.0 mm 0.00 in0.0 mm
12:20 PM 67.3°F19.6°C 47.0°F8.3°C 48% 4.6 mph SE7.4 kmh SE 9.2 mph14.8 kmh 30.39 in1029.1 mb - 0.00 in0.0 mm 0.00 in0.0 mm
12:30 PM 67.6°F19.8°C 46.7°F8.2°C 47% 5.8 mph S9.3 kmh S 8.1 mph13.0 kmh 30.39 in1029.1 mb - 0.00 in0.0 mm 0.00 in0.0 mm
12:40 PM 66.4°F19.1°C 45.6°F7.6°C 47% 5.8 mph SSE9.3 kmh SSE 8.1 mph13.0 kmh 30.39 in1029.1 mb - 0.00 in0.0 mm 0.00 in0.0 mm
12:50 PM 66.1°F18.9°C 45.8°F7.7°C 48% 3.5 mph SSE5.6 kmh SSE 4.6 mph7.4 kmh 30.39 in1029.1 mb - 0.00 in0.0 mm 0.00 in0.0 mm
01:00 PM 67.3°F19.6°C 46.4°F8.0°C 47% 5.8 mph ESE9.3 kmh ESE 9.2 mph14.8 kmh 30.39 in1029.1 mb - 0.00 in0.0 mm 0.00 in0.0 mm
01:10 PM 68.2°F20.1°C 46.6°F8.1°C 46% 6.9 mph SE11.1 kmh SE 8.1 mph13.0 kmh 30.39 in1029.1 mb - 0.00 in0.0 mm 0.00 in0.0 mm
01:20 PM 68.9°F20.5°C 46.7°F8.2°C 45% 5.8 mph SE9.3 kmh SE 8.1 mph13.0 kmh 30.39 in1029.1 mb - 0.00 in0.0 mm 0.00 in0.0 mm
01:30 PM 69.4°F20.8°C 47.2°F8.4°C 45% 6.9 mph SE11.1 kmh SE 9.2 mph14.8 kmh 30.39 in1029.1 mb - 0.00 in0.0 mm 0.00 in0.0 mm
01:40 PM 68.3°F20.2°C 46.2°F7.9°C 45% 8.1 mph E13.0 kmh E 10.4 mph16.7 kmh 30.39 in1029.1 mb - 0.00 in0.0 mm 0.00 in0.0 mm
01:50 PM 69.1°F20.6°C 47.5°F8.6°C 46% 6.9 mph SSE11.1 kmh SSE 8.1 mph13.0 kmh 30.39 in1029.1 mb - 0.00 in0.0 mm 0.00 in0.0 mm
02:00 PM 69.0°F20.6°C 46.8°F8.2°C 45% 6.9 mph SSE11.1 kmh SSE 9.2 mph14.8 kmh 30.39 in1029.1 mb - 0.00 in0.0 mm 0.00 in0.0 mm
02:10 PM 69.1°F20.6°C 47.4°F8.6°C 46% 4.6 mph E7.4 kmh E 6.9 mph11.1 kmh 30.39 in1029.1 mb - 0.00 in0.0 mm 0.00 in0.0 mm
02:20 PM 67.2°F19.6°C 45.7°F7.6°C 46% 5.8 mph ESE9.3 kmh ESE 6.9 mph11.1 kmh 30.39 in1029.1 mb - 0.00 in0.0 mm 0.00 in0.0 mm
02:30 PM 68.3°F20.2°C 46.7°F8.2°C 46% 8.1 mph ESE13.0 kmh ESE 10.4 mph16.7 kmh 30.39 in1029.1 mb - 0.00 in0.0 mm 0.00 in0.0 mm
02:40 PM 69.9°F21.1°C 48.2°F9.0°C 46% 4.6 mph SE7.4 kmh SE 5.8 mph9.3 kmh 30.42 in1030.1 mb - 0.00 in0.0 mm 0.00 in0.0 mm
02:50 PM 69.1°F20.6°C 46.8°F8.2°C 45% 6.9 mph SE11.1 kmh SE 8.1 mph13.0 kmh 30.42 in1030.1 mb - 0.00 in0.0 mm 0.00 in0.0 mm
03:00 PM 69.8°F21.0°C 46.9°F8.3°C 44% 5.8 mph SSE9.3 kmh SSE 8.1 mph13.0 kmh 30.39 in1029.1 mb - 0.00 in0.0 mm 0.00 in0.0 mm
03:10 PM 70.1°F21.2°C 47.2°F8.4°C 44% 5.8 mph ESE9.3 kmh ESE 8.1 mph13.0 kmh 30.39 in1029.1 mb - 0.00 in0.0 mm 0.00 in0.0 mm
03:20 PM 68.5°F20.3°C 45.7°F7.6°C 44% 5.8 mph SSE9.3 kmh SSE 8.1 mph13.0 kmh 30.39 in1029.1 mb - 0.00 in0.0 mm 0.00 in0.0 mm
03:30 PM 68.1°F20.1°C 45.9°F7.7°C 45% 5.8 mph SE9.3 kmh SE 6.9 mph11.1 kmh 30.39 in1029.1 mb - 0.00 in0.0 mm 0.00 in0.0 mm
03:40 PM 69.4°F20.8°C 47.1°F8.4°C 45% 3.5 mph SE5.6 kmh SE 4.6 mph7.4 kmh 30.39 in1029.1 mb - 0.00 in0.0 mm 0.00 in0.0 mm
03:50 PM 69.4°F20.8°C 47.1°F8.4°C 45% 4.6 mph SE7.4 kmh SE 5.8 mph9.3 kmh 30.39 in1029.1 mb - 0.00 in0.0 mm 0.00 in0.0 mm
04:00 PM 66.5°F19.2°C 44.5°F6.9°C 45% 4.6 mph SE7.4 kmh SE 6.9 mph11.1 kmh 30.39 in1029.1 mb - 0.00 in0.0 mm 0.00 in0.0 mm
04:10 PM 67.0°F19.4°C 44.9°F7.2°C 45% 5.8 mph SE9.3 kmh SE 8.1 mph13.0 kmh 30.39 in1029.1 mb - 0.00 in0.0 mm 0.00 in0.0 mm
04:20 PM 68.9°F20.5°C 46.1°F7.8°C 44% 4.6 mph SSE7.4 kmh SSE 9.2 mph14.8 kmh 30.39 in1029.1 mb - 0.00 in0.0 mm 0.00 in0.0 mm
04:30 PM 69.3°F20.7°C 46.5°F8.1°C 44% 4.6 mph S7.4 kmh S 8.1 mph13.0 kmh 30.39 in1029.1 mb - 0.00 in0.0 mm 0.00 in0.0 mm
04:40 PM 68.1°F20.1°C 45.3°F7.4°C 44% 6.9 mph E11.1 kmh E 8.1 mph13.0 kmh 30.39 in1029.1 mb - 0.00 in0.0 mm 0.00 in0.0 mm
04:50 PM 67.0°F19.4°C 45.0°F7.2°C 45% 5.8 mph SE9.3 kmh SE 8.1 mph13.0 kmh 30.39 in1029.1 mb - 0.00 in0.0 mm 0.00 in0.0 mm
05:00 PM 62.2°F16.8°C 41.7°F5.4°C 47% 3.5 mph ESE5.6 kmh ESE 5.8 mph9.3 kmh 30.39 in1029.1 mb - 0.00 in0.0 mm 0.00 in0.0 mm
05:10 PM 61.2°F16.2°C 41.9°F5.5°C 49% 5.8 mph E9.3 kmh E 8.1 mph13.0 kmh 30.39 in1029.1 mb - 0.00 in0.0 mm 0.00 in0.0 mm
05:20 PM 60.4°F15.8°C 42.2°F5.7°C 51% 3.5 mph SE5.6 kmh SE 6.9 mph11.1 kmh 30.39 in1029.1 mb - 0.00 in0.0 mm 0.00 in0.0 mm
05:30 PM 62.6°F17.0°C 44.2°F6.8°C 51% 3.5 mph S5.6 kmh S 2.3 mph3.7 kmh 30.36 in1028.1 mb - 0.00 in0.0 mm 0.00 in0.0 mm
05:40 PM 63.7°F17.6°C 44.2°F6.8°C 49% 5.8 mph SE9.3 kmh SE 6.9 mph11.1 kmh 30.36 in1028.1 mb - 0.00 in0.0 mm 0.00 in0.0 mm
05:50 PM 63.5°F17.5°C 43.5°F6.4°C 48% 5.8 mph SSE9.3 kmh SSE 6.9 mph11.1 kmh 30.36 in1028.1 mb - 0.00 in0.0 mm 0.00 in0.0 mm
06:00 PM 59.3°F15.2°C 41.7°F5.4°C 52% 5.8 mph ESE9.3 kmh ESE 6.9 mph11.1 kmh 30.39 in1029.1 mb - 0.00 in0.0 mm 0.00 in0.0 mm
06:10 PM 57.7°F14.3°C 41.1°F5.1°C 54% 3.5 mph SE5.6 kmh SE 5.8 mph9.3 kmh 30.39 in1029.1 mb - 0.00 in0.0 mm 0.00 in0.0 mm
06:20 PM 56.0°F13.3°C 40.0°F4.4°C 55% 2.3 mph SE3.7 kmh SE 2.3 mph3.7 kmh 30.39 in1029.1 mb - 0.00 in0.0 mm 0.00 in0.0 mm
06:30 PM 55.6°F13.1°C 41.0°F5.0°C 58% 3.5 mph ESE5.6 kmh ESE 4.6 mph7.4 kmh 30.39 in1029.1 mb - 0.00 in0.0 mm 0.00 in0.0 mm
06:40 PM 56.5°F13.6°C 42.3°F5.7°C 59% 3.5 mph SSE5.6 kmh SSE 3.5 mph5.6 kmh 30.39 in1029.1 mb - 0.00 in0.0 mm 0.00 in0.0 mm
06:50 PM 58.1°F14.5°C 43.4°F6.3°C 58% 3.5 mph ESE5.6 kmh ESE 4.6 mph7.4 kmh 30.39 in1029.1 mb - 0.00 in0.0 mm 0.00 in0.0 mm
07:00 PM 58.4°F14.7°C 43.2°F6.2°C 57% 2.3 mph SE3.7 kmh SE 3.5 mph5.6 kmh 30.39 in1029.1 mb - 0.00 in0.0 mm 0.00 in0.0 mm
07:10 PM 56.4°F13.6°C 41.4°F5.2°C 57% 3.5 mph SSE5.6 kmh SSE 4.6 mph7.4 kmh 30.36 in1028.1 mb - 0.00 in0.0 mm 0.00 in0.0 mm
07:20 PM 54.4°F12.4°C 40.3°F4.6°C 59% 2.3 mph SE3.7 kmh SE 3.5 mph5.6 kmh 30.36 in1028.1 mb - 0.00 in0.0 mm 0.00 in0.0 mm
07:30 PM 53.0°F11.7°C 40.8°F4.9°C 63% 2.3 mph ENE3.7 kmh ENE 3.5 mph5.6 kmh 30.36 in1028.1 mb - 0.00 in0.0 mm 0.00 in0.0 mm
07:40 PM 51.9°F11.1°C 40.1°F4.5°C 64% 3.5 mph SE5.6 kmh SE 3.5 mph5.6 kmh 30.36 in1028.1 mb - 0.00 in0.0 mm 0.00 in0.0 mm
07:50 PM 50.8°F10.4°C 39.8°F4.3°C 66% 2.3 mph E3.7 kmh E 2.3 mph3.7 kmh 30.36 in1028.1 mb - 0.00 in0.0 mm 0.00 in0.0 mm
08:00 PM 49.8°F9.9°C 39.3°F4.1°C 67% 1.2 mph ESE1.9 kmh ESE 2.3 mph3.7 kmh 30.39 in1029.1 mb - 0.00 in0.0 mm 0.00 in0.0 mm
08:10 PM 49.1°F9.5°C 39.4°F4.1°C 69% 1.2 mph E1.9 kmh E 2.3 mph3.7 kmh 30.36 in1028.1 mb - 0.00 in0.0 mm 0.00 in0.0 mm
08:20 PM 48.4°F9.1°C 38.7°F3.7°C 69% 1.2 mph E1.9 kmh E 2.3 mph3.7 kmh 30.36 in1028.1 mb - 0.00 in0.0 mm 0.00 in0.0 mm
08:30 PM 47.7°F8.7°C 38.4°F3.6°C 70% 1.2 mph N1.9 kmh N 1.2 mph1.9 kmh 30.39 in1029.1 mb - 0.00 in0.0 mm 0.00 in0.0 mm
08:40 PM 47.3°F8.5°C 38.4°F3.6°C 71% 1.2 mph NNW1.9 kmh NNW 2.3 mph3.7 kmh 30.39 in1029.1 mb - 0.00 in0.0 mm 0.00 in0.0 mm
08:50 PM 46.9°F8.3°C 38.0°F3.3°C 71% 1.2 mph N1.9 kmh N 2.3 mph3.7 kmh 30.39 in1029.1 mb - 0.00 in0.0 mm 0.00 in0.0 mm
09:00 PM 46.6°F8.1°C 37.7°F3.2°C 71% 2.3 mph NW3.7 kmh NW 2.3 mph3.7 kmh 30.39 in1029.1 mb - 0.00 in0.0 mm 0.00 in0.0 mm
09:10 PM 46.3°F7.9°C 37.8°F3.2°C 72% 2.3 mph NW3.7 kmh NW 3.5 mph5.6 kmh 30.39 in1029.1 mb - 0.00 in0.0 mm 0.00 in0.0 mm
09:20 PM 46.0°F7.8°C 37.9°F3.3°C 73% 2.3 mph WNW3.7 kmh WNW 2.3 mph3.7 kmh 30.39 in1029.1 mb - 0.00 in0.0 mm 0.00 in0.0 mm
09:30 PM 45.5°F7.5°C 37.3°F2.9°C 73% 2.3 mph NW3.7 kmh NW 3.5 mph5.6 kmh 30.39 in1029.1 mb - 0.00 in0.0 mm 0.00 in0.0 mm
09:40 PM 45.1°F7.3°C 37.3°F2.9°C 74% 2.3 mph NW3.7 kmh NW 3.5 mph5.6 kmh 30.39 in1029.1 mb - 0.00 in0.0 mm 0.00 in0.0 mm
09:50 PM 45.0°F7.2°C 37.2°F2.9°C 74% 2.3 mph NW3.7 kmh NW 3.5 mph5.6 kmh 30.39 in1029.1 mb - 0.00 in0.0 mm 0.00 in0.0 mm
10:00 PM 44.6°F7.0°C 37.2°F2.9°C 75% 1.2 mph N1.9 kmh N 2.3 mph3.7 kmh 30.39 in1029.1 mb - 0.00 in0.0 mm 0.00 in0.0 mm
10:10 PM 44.2°F6.8°C 36.8°F2.7°C 75% 2.3 mph NW3.7 kmh NW 3.5 mph5.6 kmh 30.39 in1029.1 mb - 0.00 in0.0 mm 0.00 in0.0 mm
10:20 PM 44.1°F6.7°C 37.0°F2.8°C 76% 1.2 mph NNW1.9 kmh NNW 2.3 mph3.7 kmh 30.39 in1029.1 mb - 0.00 in0.0 mm 0.00 in0.0 mm
10:30 PM 43.7°F6.5°C 36.6°F2.6°C 76% 2.3 mph NW3.7 kmh NW 2.3 mph3.7 kmh 30.39 in1029.1 mb - 0.00 in0.0 mm 0.00 in0.0 mm
10:40 PM 43.3°F6.3°C 36.3°F2.4°C 76% 2.3 mph WNW3.7 kmh WNW 2.3 mph3.7 kmh 30.39 in1029.1 mb - 0.00 in0.0 mm 0.00 in0.0 mm
10:50 PM 43.2°F6.2°C 36.1°F2.3°C 76% 2.3 mph NNW3.7 kmh NNW 3.5 mph5.6 kmh 30.39 in1029.1 mb - 0.00 in0.0 mm 0.00 in0.0 mm
11:00 PM 43.1°F6.2°C 36.4°F2.4°C 77% 3.5 mph NW5.6 kmh NW 3.5 mph5.6 kmh 30.39 in1029.1 mb - 0.00 in0.0 mm 0.00 in0.0 mm
11:10 PM 43.2°F6.2°C 36.4°F2.4°C 77% 2.3 mph W3.7 kmh W 3.5 mph5.6 kmh 30.39 in1029.1 mb - 0.00 in0.0 mm 0.00 in0.0 mm
11:20 PM 43.0°F6.1°C 36.3°F2.4°C 77% 1.2 mph W1.9 kmh W 2.3 mph3.7 kmh 30.39 in1029.1 mb - 0.00 in0.0 mm 0.00 in0.0 mm
11:30 PM 42.6°F5.9°C 35.9°F2.2°C 77% 2.3 mph W3.7 kmh W 3.5 mph5.6 kmh 30.39 in1029.1 mb - 0.00 in0.0 mm 0.00 in0.0 mm
11:40 PM 42.3°F5.7°C 35.9°F2.2°C 78% 2.3 mph WNW3.7 kmh WNW 2.3 mph3.7 kmh 30.39 in1029.1 mb - 0.00 in0.0 mm 0.00 in0.0 mm
11:50 PM 42.4°F5.8°C 36.1°F2.3°C 78% 2.3 mph NW3.7 kmh NW 2.3 mph3.7 kmh 30.39 in1029.1 mb - 0.00 in0.0 mm 0.00 in0.0 mm